sensor_id;sensor_type;location;lat;lon;timestamp;temperature;humidity
10451;DHT22;5273;51.290;6.918;2023-11-19T00:02:26;9.90;99.90
10451;DHT22;5273;51.290;6.918;2023-11-19T00:04:53;10.00;99.90
10451;DHT22;5273;51.290;6.918;2023-11-19T00:07:20;10.00;99.90
10451;DHT22;5273;51.290;6.918;2023-11-19T00:09:46;10.30;99.90
10451;DHT22;5273;51.290;6.918;2023-11-19T00:12:13;10.10;99.90
10451;DHT22;5273;51.290;6.918;2023-11-19T00:14:40;10.10;99.90
10451;DHT22;5273;51.290;6.918;2023-11-19T00:17:07;10.10;99.90
10451;DHT22;5273;51.290;6.918;2023-11-19T00:19:35;11.00;99.90
10451;DHT22;5273;51.290;6.918;2023-11-19T00:22:02;10.10;99.90
10451;DHT22;5273;51.290;6.918;2023-11-19T00:24:29;10.20;99.90
10451;DHT22;5273;51.290;6.918;2023-11-19T00:26:57;10.20;99.90
10451;DHT22;5273;51.290;6.918;2023-11-19T00:29:24;10.90;99.90
10451;DHT22;5273;51.290;6.918;2023-11-19T00:31:50;10.10;99.90
10451;DHT22;5273;51.290;6.918;2023-11-19T00:34:17;11.00;99.90
10451;DHT22;5273;51.290;6.918;2023-11-19T00:36:48;10.70;99.90
10451;DHT22;5273;51.290;6.918;2023-11-19T00:39:15;10.10;99.90
10451;DHT22;5273;51.290;6.918;2023-11-19T00:41:43;10.10;99.90
10451;DHT22;5273;51.290;6.918;2023-11-19T00:44:11;10.10;99.90
10451;DHT22;5273;51.290;6.918;2023-11-19T00:46:38;10.10;99.90
10451;DHT22;5273;51.290;6.918;2023-11-19T00:49:05;10.10;99.90
10451;DHT22;5273;51.290;6.918;2023-11-19T00:51:32;10.20;99.90
10451;DHT22;5273;51.290;6.918;2023-11-19T00:54:01;10.20;99.90
10451;DHT22;5273;51.290;6.918;2023-11-19T00:56:28;10.20;99.90
10451;DHT22;5273;51.290;6.918;2023-11-19T00:58:54;10.20;99.90
10451;DHT22;5273;51.290;6.918;2023-11-19T01:01:21;10.30;99.90
10451;DHT22;5273;51.290;6.918;2023-11-19T01:03:48;11.50;99.90
10451;DHT22;5273;51.290;6.918;2023-11-19T01:06:15;10.30;99.90
10451;DHT22;5273;51.290;6.918;2023-11-19T01:08:52;10.60;99.90
10451;DHT22;5273;51.290;6.918;2023-11-19T01:11:22;10.30;99.90
10451;DHT22;5273;51.290;6.918;2023-11-19T01:13:49;10.40;99.90
10451;DHT22;5273;51.290;6.918;2023-11-19T01:16:16;10.50;99.90
10451;DHT22;5273;51.290;6.918;2023-11-19T01:18:43;10.80;99.90
10451;DHT22;5273;51.290;6.918;2023-11-19T01:21:10;10.50;99.90
10451;DHT22;5273;51.290;6.918;2023-11-19T01:23:36;10.50;99.90
10451;DHT22;5273;51.290;6.918;2023-11-19T01:26:04;10.50;99.90
10451;DHT22;5273;51.290;6.918;2023-11-19T01:28:32;10.50;99.90
10451;DHT22;5273;51.290;6.918;2023-11-19T01:30:59;10.60;99.90
10451;DHT22;5273;51.290;6.918;2023-11-19T01:33:26;10.50;99.90
10451;DHT22;5273;51.290;6.918;2023-11-19T01:35:53;10.60;99.90
10451;DHT22;5273;51.290;6.918;2023-11-19T01:38:21;10.80;99.90
10451;DHT22;5273;51.290;6.918;2023-11-19T01:40:48;10.60;99.90
10451;DHT22;5273;51.290;6.918;2023-11-19T01:43:34;10.60;99.90
10451;DHT22;5273;51.290;6.918;2023-11-19T01:46:02;10.70;99.90
10451;DHT22;5273;51.290;6.918;2023-11-19T01:48:29;10.70;99.90
10451;DHT22;5273;51.290;6.918;2023-11-19T01:50:58;10.70;99.90
10451;DHT22;5273;51.290;6.918;2023-11-19T01:53:27;11.00;99.90
10451;DHT22;5273;51.290;6.918;2023-11-19T01:55:54;11.20;99.90
10451;DHT22;5273;51.290;6.918;2023-11-19T01:58:23;10.90;99.90
10451;DHT22;5273;51.290;6.918;2023-11-19T02:00:51;11.20;99.90
10451;DHT22;5273;51.290;6.918;2023-11-19T02:03:19;11.00;99.90
10451;DHT22;5273;51.290;6.918;2023-11-19T02:05:48;11.10;99.90
10451;DHT22;5273;51.290;6.918;2023-11-19T02:08:16;11.00;99.90
10451;DHT22;5273;51.290;6.918;2023-11-19T02:10:43;11.50;99.90
10451;DHT22;5273;51.290;6.918;2023-11-19T02:13:10;11.90;99.90
10451;DHT22;5273;51.290;6.918;2023-11-19T02:15:39;11.30;99.90
10451;DHT22;5273;51.290;6.918;2023-11-19T02:18:23;11.40;99.90
10451;DHT22;5273;51.290;6.918;2023-11-19T02:20:53;11.40;99.90
10451;DHT22;5273;51.290;6.918;2023-11-19T02:23:21;11.40;99.90
10451;DHT22;5273;51.290;6.918;2023-11-19T02:26:02;11.40;99.90
10451;DHT22;5273;51.290;6.918;2023-11-19T02:28:30;11.50;99.90
10451;DHT22;5273;51.290;6.918;2023-11-19T02:30:58;11.50;99.90
10451;DHT22;5273;51.290;6.918;2023-11-19T02:33:25;11.50;99.90
10451;DHT22;5273;51.290;6.918;2023-11-19T02:35:51;11.60;99.90
10451;DHT22;5273;51.290;6.918;2023-11-19T02:38:18;11.60;99.90
10451;DHT22;5273;51.290;6.918;2023-11-19T02:40:47;11.60;99.90
10451;DHT22;5273;51.290;6.918;2023-11-19T02:43:14;11.60;99.90
10451;DHT22;5273;51.290;6.918;2023-11-19T02:45:43;11.60;99.90
10451;DHT22;5273;51.290;6.918;2023-11-19T02:48:11;11.60;99.90
10451;DHT22;5273;51.290;6.918;2023-11-19T02:50:39;11.70;99.90
10451;DHT22;5273;51.290;6.918;2023-11-19T02:53:07;11.60;99.90
10451;DHT22;5273;51.290;6.918;2023-11-19T02:55:33;11.60;99.90
10451;DHT22;5273;51.290;6.918;2023-11-19T02:58:03;11.70;99.90
10451;DHT22;5273;51.290;6.918;2023-11-19T03:00:35;12.20;99.90
10451;DHT22;5273;51.290;6.918;2023-11-19T03:03:08;11.70;99.90
10451;DHT22;5273;51.290;6.918;2023-11-19T03:05:45;11.70;99.90
10451;DHT22;5273;51.290;6.918;2023-11-19T03:08:14;11.70;99.90
10451;DHT22;5273;51.290;6.918;2023-11-19T03:10:41;11.80;99.90
10451;DHT22;5273;51.290;6.918;2023-11-19T03:13:11;11.70;99.90
10451;DHT22;5273;51.290;6.918;2023-11-19T03:15:39;11.80;99.90
10451;DHT22;5273;51.290;6.918;2023-11-19T03:18:06;11.80;99.90
10451;DHT22;5273;51.290;6.918;2023-11-19T03:20:34;11.70;99.90
10451;DHT22;5273;51.290;6.918;2023-11-19T03:23:01;11.80;99.90
10451;DHT22;5273;51.290;6.918;2023-11-19T03:25:28;11.80;99.90
10451;DHT22;5273;51.290;6.918;2023-11-19T03:27:58;11.80;99.90
10451;DHT22;5273;51.290;6.918;2023-11-19T03:30:26;11.80;99.90
10451;DHT22;5273;51.290;6.918;2023-11-19T03:32:53;11.80;99.90
10451;DHT22;5273;51.290;6.918;2023-11-19T03:35:20;11.80;99.90
10451;DHT22;5273;51.290;6.918;2023-11-19T03:37:49;11.80;99.90
10451;DHT22;5273;51.290;6.918;2023-11-19T03:40:16;11.80;99.90
10451;DHT22;5273;51.290;6.918;2023-11-19T03:42:44;11.80;99.90
10451;DHT22;5273;51.290;6.918;2023-11-19T03:45:11;11.80;99.90
10451;DHT22;5273;51.290;6.918;2023-11-19T03:47:38;11.80;99.90
10451;DHT22;5273;51.290;6.918;2023-11-19T03:50:06;12.20;99.90
10451;DHT22;5273;51.290;6.918;2023-11-19T03:52:33;11.80;99.90
10451;DHT22;5273;51.290;6.918;2023-11-19T03:55:01;12.80;99.90
10451;DHT22;5273;51.290;6.918;2023-11-19T03:57:28;11.80;99.90
10451;DHT22;5273;51.290;6.918;2023-11-19T03:59:55;11.80;99.90
10451;DHT22;5273;51.290;6.918;2023-11-19T04:02:24;13.00;99.90
10451;DHT22;5273;51.290;6.918;2023-11-19T04:04:53;12.10;99.90
10451;DHT22;5273;51.290;6.918;2023-11-19T04:07:20;11.80;99.90
10451;DHT22;5273;51.290;6.918;2023-11-19T04:09:47;11.80;99.90
10451;DHT22;5273;51.290;6.918;2023-11-19T04:12:15;11.90;99.90
10451;DHT22;5273;51.290;6.918;2023-11-19T04:14:42;11.80;99.90
10451;DHT22;5273;51.290;6.918;2023-11-19T04:17:09;11.90;99.90
10451;DHT22;5273;51.290;6.918;2023-11-19T04:19:36;11.80;99.90
10451;DHT22;5273;51.290;6.918;2023-11-19T04:22:03;11.70;99.90
10451;DHT22;5273;51.290;6.918;2023-11-19T04:24:30;11.70;99.90
10451;DHT22;5273;51.290;6.918;2023-11-19T04:26:57;11.70;99.90
10451;DHT22;5273;51.290;6.918;2023-11-19T04:29:25;11.60;99.90
10451;DHT22;5273;51.290;6.918;2023-11-19T04:31:52;11.90;99.90
10451;DHT22;5273;51.290;6.918;2023-11-19T04:34:18;11.60;99.90
10451;DHT22;5273;51.290;6.918;2023-11-19T04:36:45;11.60;99.90
10451;DHT22;5273;51.290;6.918;2023-11-19T04:39:12;11.50;99.90
10451;DHT22;5273;51.290;6.918;2023-11-19T04:41:47;11.60;99.90
10451;DHT22;5273;51.290;6.918;2023-11-19T04:44:14;11.50;99.90
10451;DHT22;5273;51.290;6.918;2023-11-19T04:46:43;11.90;99.90
10451;DHT22;5273;51.290;6.918;2023-11-19T04:49:11;11.50;99.90
10451;DHT22;5273;51.290;6.918;2023-11-19T04:51:39;11.50;99.90
10451;DHT22;5273;51.290;6.918;2023-11-19T04:54:06;11.60;99.90
10451;DHT22;5273;51.290;6.918;2023-11-19T04:56:34;11.50;99.90
10451;DHT22;5273;51.290;6.918;2023-11-19T04:59:02;11.60;99.90
10451;DHT22;5273;51.290;6.918;2023-11-19T05:01:29;11.70;99.90
10451;DHT22;5273;51.290;6.918;2023-11-19T05:03:57;11.80;99.90
10451;DHT22;5273;51.290;6.918;2023-11-19T05:06:26;11.60;99.90
10451;DHT22;5273;51.290;6.918;2023-11-19T05:08:54;11.70;99.90
10451;DHT22;5273;51.290;6.918;2023-11-19T05:11:20;11.50;99.90
10451;DHT22;5273;51.290;6.918;2023-11-19T05:13:47;11.50;99.90
10451;DHT22;5273;51.290;6.918;2023-11-19T05:16:14;11.50;99.90
10451;DHT22;5273;51.290;6.918;2023-11-19T05:18:41;11.50;99.90
10451;DHT22;5273;51.290;6.918;2023-11-19T05:21:09;11.50;99.90
10451;DHT22;5273;51.290;6.918;2023-11-19T05:23:36;11.90;99.90
10451;DHT22;5273;51.290;6.918;2023-11-19T05:26:03;11.50;99.90
10451;DHT22;5273;51.290;6.918;2023-11-19T05:28:30;11.50;99.90
10451;DHT22;5273;51.290;6.918;2023-11-19T05:30:57;11.50;99.90
10451;DHT22;5273;51.290;6.918;2023-11-19T05:33:24;11.50;99.90
10451;DHT22;5273;51.290;6.918;2023-11-19T05:35:51;11.50;99.90
10451;DHT22;5273;51.290;6.918;2023-11-19T05:38:19;11.40;99.90
10451;DHT22;5273;51.290;6.918;2023-11-19T05:40:46;11.40;99.90
10451;DHT22;5273;51.290;6.918;2023-11-19T05:43:15;11.40;99.90
10451;DHT22;5273;51.290;6.918;2023-11-19T05:45:42;11.30;99.90
10451;DHT22;5273;51.290;6.918;2023-11-19T05:48:09;11.30;99.90
10451;DHT22;5273;51.290;6.918;2023-11-19T05:50:36;11.30;99.90
10451;DHT22;5273;51.290;6.918;2023-11-19T05:53:03;11.30;99.90
10451;DHT22;5273;51.290;6.918;2023-11-19T05:55:33;11.30;99.90
10451;DHT22;5273;51.290;6.918;2023-11-19T05:58:00;11.20;99.90
10451;DHT22;5273;51.290;6.918;2023-11-19T06:00:28;11.20;99.90
10451;DHT22;5273;51.290;6.918;2023-11-19T06:02:56;11.20;99.90
10451;DHT22;5273;51.290;6.918;2023-11-19T06:05:22;11.20;99.90
10451;DHT22;5273;51.290;6.918;2023-11-19T06:07:49;11.20;99.90
10451;DHT22;5273;51.290;6.918;2023-11-19T06:10:17;11.40;99.90
10451;DHT22;5273;51.290;6.918;2023-11-19T06:12:46;11.20;99.90
10451;DHT22;5273;51.290;6.918;2023-11-19T06:15:13;11.20;99.90
10451;DHT22;5273;51.290;6.918;2023-11-19T06:17:40;11.50;99.90
10451;DHT22;5273;51.290;6.918;2023-11-19T06:20:07;11.00;99.90
10451;DHT22;5273;51.290;6.918;2023-11-19T06:22:37;11.00;99.90
10451;DHT22;5273;51.290;6.918;2023-11-19T06:25:04;11.80;99.90
10451;DHT22;5273;51.290;6.918;2023-11-19T06:27:32;10.90;99.90
10451;DHT22;5273;51.290;6.918;2023-11-19T06:30:01;10.90;99.90
10451;DHT22;5273;51.290;6.918;2023-11-19T06:32:28;12.60;99.90
10451;DHT22;5273;51.290;6.918;2023-11-19T06:34:55;10.80;99.90
10451;DHT22;5273;51.290;6.918;2023-11-19T06:37:22;10.80;99.90
10451;DHT22;5273;51.290;6.918;2023-11-19T06:39:49;10.90;99.90
10451;DHT22;5273;51.290;6.918;2023-11-19T06:42:16;10.80;99.90
10451;DHT22;5273;51.290;6.918;2023-11-19T06:44:43;11.70;99.90
10451;DHT22;5273;51.290;6.918;2023-11-19T06:47:12;10.70;99.90
10451;DHT22;5273;51.290;6.918;2023-11-19T06:49:39;10.70;99.90
10451;DHT22;5273;51.290;6.918;2023-11-19T06:52:05;10.70;99.90
10451;DHT22;5273;51.290;6.918;2023-11-19T06:54:32;10.70;99.90
10451;DHT22;5273;51.290;6.918;2023-11-19T06:56:59;10.70;99.90
10451;DHT22;5273;51.290;6.918;2023-11-19T06:59:26;10.60;99.90
10451;DHT22;5273;51.290;6.918;2023-11-19T07:01:54;10.60;99.90
10451;DHT22;5273;51.290;6.918;2023-11-19T07:04:22;10.60;99.90
10451;DHT22;5273;51.290;6.918;2023-11-19T07:06:49;10.60;99.90
10451;DHT22;5273;51.290;6.918;2023-11-19T07:09:17;11.30;99.90
10451;DHT22;5273;51.290;6.918;2023-11-19T07:11:44;10.50;99.90
10451;DHT22;5273;51.290;6.918;2023-11-19T07:14:12;10.50;99.90
10451;DHT22;5273;51.290;6.918;2023-11-19T07:16:38;10.50;99.90
10451;DHT22;5273;51.290;6.918;2023-11-19T07:19:05;10.50;99.90
10451;DHT22;5273;51.290;6.918;2023-11-19T07:21:34;10.50;99.90
10451;DHT22;5273;51.290;6.918;2023-11-19T07:24:05;11.00;99.90
10451;DHT22;5273;51.290;6.918;2023-11-19T07:26:32;10.60;99.90
10451;DHT22;5273;51.290;6.918;2023-11-19T07:28:59;10.70;99.90
10451;DHT22;5273;51.290;6.918;2023-11-19T07:31:27;10.80;99.90
10451;DHT22;5273;51.290;6.918;2023-11-19T07:33:54;11.00;99.90
10451;DHT22;5273;51.290;6.918;2023-11-19T07:36:21;11.20;99.90
10451;DHT22;5273;51.290;6.918;2023-11-19T07:38:49;11.40;99.90
10451;DHT22;5273;51.290;6.918;2023-11-19T07:41:16;11.70;99.90
10451;DHT22;5273;51.290;6.918;2023-11-19T07:43:43;11.80;99.90
10451;DHT22;5273;51.290;6.918;2023-11-19T07:46:12;12.10;99.90
10451;DHT22;5273;51.290;6.918;2023-11-19T07:48:39;12.20;99.90
10451;DHT22;5273;51.290;6.918;2023-11-19T07:51:06;12.50;99.90
10451;DHT22;5273;51.290;6.918;2023-11-19T07:53:33;12.80;99.90
10451;DHT22;5273;51.290;6.918;2023-11-19T07:56:01;13.10;99.90
10451;DHT22;5273;51.290;6.918;2023-11-19T07:58:28;13.30;99.90
10451;DHT22;5273;51.290;6.918;2023-11-19T08:00:55;13.60;99.90
10451;DHT22;5273;51.290;6.918;2023-11-19T08:03:22;13.80;99.90
10451;DHT22;5273;51.290;6.918;2023-11-19T08:05:49;14.10;99.90
10451;DHT22;5273;51.290;6.918;2023-11-19T08:08:16;14.30;99.90
10451;DHT22;5273;51.290;6.918;2023-11-19T08:10:43;14.50;99.90
10451;DHT22;5273;51.290;6.918;2023-11-19T08:13:12;14.70;99.90
10451;DHT22;5273;51.290;6.918;2023-11-19T08:15:39;14.90;99.90
10451;DHT22;5273;51.290;6.918;2023-11-19T08:18:06;14.90;99.90
10451;DHT22;5273;51.290;6.918;2023-11-19T08:20:33;15.20;99.90
10451;DHT22;5273;51.290;6.918;2023-11-19T08:23:00;15.20;99.90
10451;DHT22;5273;51.290;6.918;2023-11-19T08:25:26;15.30;99.90
10451;DHT22;5273;51.290;6.918;2023-11-19T08:27:54;15.60;99.90
10451;DHT22;5273;51.290;6.918;2023-11-19T08:30:22;15.30;99.90
10451;DHT22;5273;51.290;6.918;2023-11-19T08:32:49;15.20;99.90
10451;DHT22;5273;51.290;6.918;2023-11-19T08:35:16;14.10;99.90
10451;DHT22;5273;51.290;6.918;2023-11-19T08:37:42;13.70;99.90
10451;DHT22;5273;51.290;6.918;2023-11-19T08:40:11;13.40;99.90
10451;DHT22;5273;51.290;6.918;2023-11-19T08:42:40;13.10;99.90
10451;DHT22;5273;51.290;6.918;2023-11-19T08:45:08;12.90;99.90
10451;DHT22;5273;51.290;6.918;2023-11-19T08:47:37;12.70;99.90
10451;DHT22;5273;51.290;6.918;2023-11-19T08:50:06;12.70;99.90
10451;DHT22;5273;51.290;6.918;2023-11-19T08:52:33;12.60;99.90
10451;DHT22;5273;51.290;6.918;2023-11-19T08:55:01;12.60;99.90
10451;DHT22;5273;51.290;6.918;2023-11-19T08:57:28;12.50;99.90
10451;DHT22;5273;51.290;6.918;2023-11-19T08:59:54;13.20;99.90
10451;DHT22;5273;51.290;6.918;2023-11-19T09:02:21;12.60;99.90
10451;DHT22;5273;51.290;6.918;2023-11-19T09:04:49;12.50;99.90
10451;DHT22;5273;51.290;6.918;2023-11-19T09:07:16;12.40;99.90
10451;DHT22;5273;51.290;6.918;2023-11-19T09:09:43;12.40;99.90
10451;DHT22;5273;51.290;6.918;2023-11-19T09:12:10;12.50;99.90
10451;DHT22;5273;51.290;6.918;2023-11-19T09:14:36;12.60;99.90
10451;DHT22;5273;51.290;6.918;2023-11-19T09:17:03;12.70;99.90
10451;DHT22;5273;51.290;6.918;2023-11-19T09:19:32;12.70;99.90
10451;DHT22;5273;51.290;6.918;2023-11-19T09:22:02;12.90;99.90
10451;DHT22;5273;51.290;6.918;2023-11-19T09:24:29;12.90;99.90
10451;DHT22;5273;51.290;6.918;2023-11-19T09:26:56;12.90;99.90
10451;DHT22;5273;51.290;6.918;2023-11-19T09:29:23;13.20;99.90
10451;DHT22;5273;51.290;6.918;2023-11-19T09:31:50;13.50;99.90
10451;DHT22;5273;51.290;6.918;2023-11-19T09:34:17;13.90;99.90
10451;DHT22;5273;51.290;6.918;2023-11-19T09:36:44;14.00;99.90
10451;DHT22;5273;51.290;6.918;2023-11-19T09:39:12;13.70;99.90
10451;DHT22;5273;51.290;6.918;2023-11-19T09:41:40;13.70;99.90
10451;DHT22;5273;51.290;6.918;2023-11-19T09:44:08;13.30;99.90
10451;DHT22;5273;51.290;6.918;2023-11-19T09:46:35;13.60;99.90
10451;DHT22;5273;51.290;6.918;2023-11-19T09:49:03;13.20;99.90
10451;DHT22;5273;51.290;6.918;2023-11-19T09:51:33;13.30;99.90
10451;DHT22;5273;51.290;6.918;2023-11-19T09:53:59;13.40;99.90
10451;DHT22;5273;51.290;6.918;2023-11-19T09:56:29;13.30;99.90
10451;DHT22;5273;51.290;6.918;2023-11-19T09:58:56;13.10;99.90
10451;DHT22;5273;51.290;6.918;2023-11-19T10:01:23;12.80;99.90
10451;DHT22;5273;51.290;6.918;2023-11-19T10:03:50;12.60;99.90
10451;DHT22;5273;51.290;6.918;2023-11-19T10:06:18;12.50;99.90
10451;DHT22;5273;51.290;6.918;2023-11-19T10:08:46;12.50;99.90
10451;DHT22;5273;51.290;6.918;2023-11-19T10:11:13;13.10;99.90
10451;DHT22;5273;51.290;6.918;2023-11-19T10:13:42;12.30;99.90
10451;DHT22;5273;51.290;6.918;2023-11-19T10:16:11;12.40;99.90
10451;DHT22;5273;51.290;6.918;2023-11-19T10:18:44;12.20;99.90
10451;DHT22;5273;51.290;6.918;2023-11-19T10:21:12;12.30;99.90
10451;DHT22;5273;51.290;6.918;2023-11-19T10:23:49;12.20;99.90
10451;DHT22;5273;51.290;6.918;2023-11-19T10:26:17;12.30;99.90
10451;DHT22;5273;51.290;6.918;2023-11-19T10:28:46;12.20;99.90
10451;DHT22;5273;51.290;6.918;2023-11-19T10:31:13;12.50;99.90
10451;DHT22;5273;51.290;6.918;2023-11-19T10:33:40;12.80;99.90
10451;DHT22;5273;51.290;6.918;2023-11-19T10:36:08;13.10;99.90
10451;DHT22;5273;51.290;6.918;2023-11-19T10:38:35;13.20;99.90
10451;DHT22;5273;51.290;6.918;2023-11-19T10:41:02;13.40;99.90
10451;DHT22;5273;51.290;6.918;2023-11-19T10:43:30;13.30;99.90
10451;DHT22;5273;51.290;6.918;2023-11-19T10:46:09;13.10;99.90
10451;DHT22;5273;51.290;6.918;2023-11-19T10:48:38;12.90;99.90
10451;DHT22;5273;51.290;6.918;2023-11-19T10:51:06;12.90;99.90
10451;DHT22;5273;51.290;6.918;2023-11-19T10:53:36;12.80;99.90
10451;DHT22;5273;51.290;6.918;2023-11-19T10:56:06;13.20;99.90
10451;DHT22;5273;51.290;6.918;2023-11-19T10:58:37;12.60;99.90
10451;DHT22;5273;51.290;6.918;2023-11-19T11:01:13;12.50;99.90
10451;DHT22;5273;51.290;6.918;2023-11-19T11:03:41;12.70;99.90
10451;DHT22;5273;51.290;6.918;2023-11-19T11:06:09;12.40;99.90
10451;DHT22;5273;51.290;6.918;2023-11-19T11:08:37;12.30;99.90
10451;DHT22;5273;51.290;6.918;2023-11-19T11:11:05;12.30;99.90
10451;DHT22;5273;51.290;6.918;2023-11-19T11:13:33;12.30;99.90
10451;DHT22;5273;51.290;6.918;2023-11-19T11:16:00;12.40;99.90
10451;DHT22;5273;51.290;6.918;2023-11-19T11:18:28;12.50;99.90
10451;DHT22;5273;51.290;6.918;2023-11-19T11:20:59;12.50;99.90
10451;DHT22;5273;51.290;6.918;2023-11-19T11:23:59;12.60;99.90
10451;DHT22;5273;51.290;6.918;2023-11-19T11:26:40;12.60;99.90
10451;DHT22;5273;51.290;6.918;2023-11-19T11:29:14;13.20;99.90
10451;DHT22;5273;51.290;6.918;2023-11-19T11:31:51;12.70;99.90
10451;DHT22;5273;51.290;6.918;2023-11-19T11:34:35;12.70;99.90
10451;DHT22;5273;51.290;6.918;2023-11-19T11:37:10;14.00;99.90
10451;DHT22;5273;51.290;6.918;2023-11-19T11:39:40;12.80;99.90
10451;DHT22;5273;51.290;6.918;2023-11-19T11:42:35;12.90;99.90
10451;DHT22;5273;51.290;6.918;2023-11-19T11:45:04;13.10;99.90
10451;DHT22;5273;51.290;6.918;2023-11-19T11:50:52;13.40;99.90
10451;DHT22;5273;51.290;6.918;2023-11-19T11:53:21;13.60;99.90
10451;DHT22;5273;51.290;6.918;2023-11-19T11:55:54;13.80;99.90
10451;DHT22;5273;51.290;6.918;2023-11-19T11:58:25;14.00;99.90
10451;DHT22;5273;51.290;6.918;2023-11-19T12:00:52;14.10;99.90
10451;DHT22;5273;51.290;6.918;2023-11-19T12:03:20;14.20;99.90
10451;DHT22;5273;51.290;6.918;2023-11-19T12:05:48;14.30;99.90
10451;DHT22;5273;51.290;6.918;2023-11-19T12:08:20;14.20;99.90
10451;DHT22;5273;51.290;6.918;2023-11-19T12:10:49;14.10;99.90
10451;DHT22;5273;51.290;6.918;2023-11-19T12:13:16;14.00;99.90
10451;DHT22;5273;51.290;6.918;2023-11-19T12:16:08;14.30;99.90
10451;DHT22;5273;51.290;6.918;2023-11-19T12:18:38;13.90;99.90
10451;DHT22;5273;51.290;6.918;2023-11-19T12:21:06;13.80;99.90
10451;DHT22;5273;51.290;6.918;2023-11-19T12:23:46;13.80;99.90
10451;DHT22;5273;51.290;6.918;2023-11-19T12:26:33;13.70;99.90
10451;DHT22;5273;51.290;6.918;2023-11-19T12:29:01;13.60;99.90
10451;DHT22;5273;51.290;6.918;2023-11-19T12:31:31;13.70;99.90
10451;DHT22;5273;51.290;6.918;2023-11-19T12:34:05;13.70;99.90
10451;DHT22;5273;51.290;6.918;2023-11-19T12:36:32;13.70;99.90
10451;DHT22;5273;51.290;6.918;2023-11-19T12:39:00;13.70;99.90
10451;DHT22;5273;51.290;6.918;2023-11-19T12:41:27;13.60;99.90
10451;DHT22;5273;51.290;6.918;2023-11-19T12:43:59;13.60;99.90
10451;DHT22;5273;51.290;6.918;2023-11-19T12:46:35;13.40;99.90
10451;DHT22;5273;51.290;6.918;2023-11-19T12:49:01;12.80;99.90
10451;DHT22;5273;51.290;6.918;2023-11-19T12:51:31;13.90;99.90
10451;DHT22;5273;51.290;6.918;2023-11-19T12:53:57;13.20;99.90
10451;DHT22;5273;51.290;6.918;2023-11-19T12:56:26;13.20;99.90
10451;DHT22;5273;51.290;6.918;2023-11-19T12:58:52;13.10;99.90
10451;DHT22;5273;51.290;6.918;2023-11-19T13:01:20;13.10;99.90
10451;DHT22;5273;51.290;6.918;2023-11-19T13:03:47;13.10;99.90
10451;DHT22;5273;51.290;6.918;2023-11-19T13:06:17;13.20;99.90
10451;DHT22;5273;51.290;6.918;2023-11-19T13:08:47;13.00;99.90
10451;DHT22;5273;51.290;6.918;2023-11-19T13:11:27;13.10;99.90
10451;DHT22;5273;51.290;6.918;2023-11-19T13:13:59;13.10;99.90
10451;DHT22;5273;51.290;6.918;2023-11-19T13:16:27;13.20;99.90
10451;DHT22;5273;51.290;6.918;2023-11-19T13:18:54;13.10;99.90
10451;DHT22;5273;51.290;6.918;2023-11-19T13:21:22;14.30;99.90
10451;DHT22;5273;51.290;6.918;2023-11-19T13:23:49;13.50;99.90
10451;DHT22;5273;51.290;6.918;2023-11-19T13:26:16;13.50;99.90
10451;DHT22;5273;51.290;6.918;2023-11-19T13:28:43;13.50;99.90
10451;DHT22;5273;51.290;6.918;2023-11-19T13:31:11;13.50;99.90
10451;DHT22;5273;51.290;6.918;2023-11-19T13:33:38;13.40;99.90
10451;DHT22;5273;51.290;6.918;2023-11-19T13:36:05;13.70;99.90
10451;DHT22;5273;51.290;6.918;2023-11-19T13:38:33;13.30;99.90
10451;DHT22;5273;51.290;6.918;2023-11-19T13:41:00;14.40;99.90
10451;DHT22;5273;51.290;6.918;2023-11-19T13:43:27;13.10;99.90
10451;DHT22;5273;51.290;6.918;2023-11-19T13:45:54;13.50;99.90
10451;DHT22;5273;51.290;6.918;2023-11-19T13:48:23;13.30;99.90
10451;DHT22;5273;51.290;6.918;2023-11-19T13:50:49;13.20;99.90
10451;DHT22;5273;51.290;6.918;2023-11-19T13:53:16;13.20;99.90
10451;DHT22;5273;51.290;6.918;2023-11-19T13:55:43;13.20;99.90
10451;DHT22;5273;51.290;6.918;2023-11-19T13:58:10;13.10;99.90
10451;DHT22;5273;51.290;6.918;2023-11-19T14:00:37;13.00;99.90
10451;DHT22;5273;51.290;6.918;2023-11-19T14:03:04;13.00;99.90
10451;DHT22;5273;51.290;6.918;2023-11-19T14:05:33;12.60;99.90
10451;DHT22;5273;51.290;6.918;2023-11-19T14:08:00;12.80;99.90
10451;DHT22;5273;51.290;6.918;2023-11-19T14:10:26;13.30;99.90
10451;DHT22;5273;51.290;6.918;2023-11-19T14:12:54;12.70;99.90
10451;DHT22;5273;51.290;6.918;2023-11-19T14:15:20;12.70;99.90
10451;DHT22;5273;51.290;6.918;2023-11-19T14:17:47;12.60;99.90
10451;DHT22;5273;51.290;6.918;2023-11-19T14:20:14;12.60;99.90
10451;DHT22;5273;51.290;6.918;2023-11-19T14:22:45;12.60;99.90
10451;DHT22;5273;51.290;6.918;2023-11-19T14:25:14;12.50;99.90
10451;DHT22;5273;51.290;6.918;2023-11-19T14:27:43;12.50;99.90
10451;DHT22;5273;51.290;6.918;2023-11-19T14:30:12;12.40;99.90
10451;DHT22;5273;51.290;6.918;2023-11-19T14:32:40;12.40;99.90
10451;DHT22;5273;51.290;6.918;2023-11-19T14:35:09;12.40;99.90
10451;DHT22;5273;51.290;6.918;2023-11-19T14:37:36;12.40;99.90
10451;DHT22;5273;51.290;6.918;2023-11-19T14:40:04;12.40;99.90
10451;DHT22;5273;51.290;6.918;2023-11-19T14:42:32;12.30;99.90
10451;DHT22;5273;51.290;6.918;2023-11-19T14:44:59;12.30;99.90
10451;DHT22;5273;51.290;6.918;2023-11-19T14:47:26;12.30;99.90
10451;DHT22;5273;51.290;6.918;2023-11-19T14:49:55;12.30;99.90
10451;DHT22;5273;51.290;6.918;2023-11-19T14:52:22;12.20;99.90
10451;DHT22;5273;51.290;6.918;2023-11-19T14:54:49;12.10;99.90
10451;DHT22;5273;51.290;6.918;2023-11-19T14:57:18;12.10;99.90
10451;DHT22;5273;51.290;6.918;2023-11-19T14:59:45;12.80;99.90
10451;DHT22;5273;51.290;6.918;2023-11-19T15:02:13;12.00;99.90
10451;DHT22;5273;51.290;6.918;2023-11-19T15:04:40;12.10;99.90
10451;DHT22;5273;51.290;6.918;2023-11-19T15:07:07;11.90;99.90
10451;DHT22;5273;51.290;6.918;2023-11-19T15:09:33;11.90;99.90
10451;DHT22;5273;51.290;6.918;2023-11-19T15:12:02;11.80;99.90
10451;DHT22;5273;51.290;6.918;2023-11-19T15:14:30;11.80;99.90
10451;DHT22;5273;51.290;6.918;2023-11-19T15:16:57;11.80;99.90
10451;DHT22;5273;51.290;6.918;2023-11-19T15:19:24;11.80;99.90
10451;DHT22;5273;51.290;6.918;2023-11-19T15:21:51;11.70;99.90
10451;DHT22;5273;51.290;6.918;2023-11-19T15:24:20;11.70;99.90
10451;DHT22;5273;51.290;6.918;2023-11-19T15:26:47;11.60;99.90
10451;DHT22;5273;51.290;6.918;2023-11-19T15:29:14;11.60;99.90
10451;DHT22;5273;51.290;6.918;2023-11-19T15:31:42;11.60;99.90
10451;DHT22;5273;51.290;6.918;2023-11-19T15:34:09;11.90;99.90
10451;DHT22;5273;51.290;6.918;2023-11-19T15:36:36;11.60;99.90
10451;DHT22;5273;51.290;6.918;2023-11-19T15:39:03;11.60;99.90
10451;DHT22;5273;51.290;6.918;2023-11-19T15:41:31;11.50;99.90
10451;DHT22;5273;51.290;6.918;2023-11-19T15:43:58;11.50;99.90
10451;DHT22;5273;51.290;6.918;2023-11-19T15:46:25;11.50;99.90
10451;DHT22;5273;51.290;6.918;2023-11-19T15:48:53;11.50;99.90
10451;DHT22;5273;51.290;6.918;2023-11-19T15:51:20;11.50;99.90
10451;DHT22;5273;51.290;6.918;2023-11-19T15:53:47;11.50;99.90
10451;DHT22;5273;51.290;6.918;2023-11-19T15:56:14;11.40;99.90